createdAt,value
2022-08-16T00:02:12.985Z,100038.69
2022-08-16T00:04:39.984Z,100043.19
2022-08-16T00:07:06.417Z,100045.13
2022-08-16T00:09:33.112Z,100045.97
2022-08-16T00:12:03.032Z,100044.06
2022-08-16T00:14:33.342Z,100041.28
2022-08-16T00:17:16.073Z,100040.44
2022-08-16T00:19:45.752Z,100043.53
2022-08-16T00:22:13.738Z,100048.53
2022-08-16T00:24:44.705Z,100047.09
2022-08-16T00:27:13.154Z,100054.88
2022-08-16T00:29:39.646Z,100054.31
2022-08-16T00:32:08.073Z,100052.59
2022-08-16T00:34:52.382Z,100062.34
2022-08-16T00:37:24.631Z,100069.28
2022-08-16T00:39:57.167Z,100058.13
2022-08-16T00:42:30.605Z,100058.69
2022-08-16T00:45:09.458Z,100064.25
2022-08-16T00:47:42.706Z,100057.28
2022-08-16T00:50:20.169Z,100053.66
2022-08-16T00:52:50.871Z,100060.09
2022-08-16T00:55:23.773Z,100054.50
2022-08-16T00:57:59.205Z,100061.75
2022-08-16T01:00:28.812Z,100057.00
2022-08-16T01:05:42.946Z,100053.09
2022-08-16T01:08:36.083Z,100044.13
2022-08-16T01:10:59.996Z,100043.81
2022-08-16T01:13:31.601Z,100034.03
2022-08-16T01:16:03.404Z,100034.53
2022-08-16T01:18:42.493Z,100044.59
2022-08-16T01:21:41.213Z,100050.47
2022-08-16T01:24:44.529Z,100048.00
2022-08-16T01:27:10.314Z,100054.41
2022-08-16T01:29:57.341Z,100046.84
2022-08-16T01:32:33.602Z,100038.47
2022-08-16T01:35:01.076Z,100044.59
2022-08-16T01:37:27.630Z,100043.16
2022-08-16T01:40:07.182Z,100042.88
2022-08-16T01:42:34.351Z,100042.03
2022-08-16T01:45:01.044Z,100047.63
2022-08-16T01:47:29.435Z,100041.22
2022-08-16T01:50:42.000Z,100041.81
2022-08-16T01:52:46.780Z,100043.00
2022-08-16T01:55:14.573Z,100039.66
2022-08-16T01:57:53.667Z,100047.50
2022-08-16T02:00:29.391Z,100044.16
2022-08-16T02:02:56.887Z,100051.47
2022-08-16T02:05:23.773Z,100042.00
2022-08-16T02:07:52.144Z,100045.34
2022-08-16T02:10:20.049Z,100040.59
2022-08-16T02:12:51.445Z,100038.94
2022-08-16T02:15:26.016Z,100038.09
2022-08-16T02:17:55.252Z,100050.94
2022-08-16T02:20:26.128Z,100042.84
2022-08-16T02:22:55.520Z,100052.06
2022-08-16T02:25:23.021Z,100049.25
2022-08-16T02:27:51.053Z,100042.84
2022-08-16T02:30:35.699Z,100050.09
2022-08-16T02:33:04.865Z,100048.41
2022-08-16T02:35:32.490Z,100049.25
2022-08-16T02:38:08.422Z,100049.25
2022-08-16T02:40:36.105Z,100049.56
2022-08-16T02:43:04.178Z,100050.38
2022-08-16T02:45:30.614Z,100049.84
2022-08-16T02:48:01.273Z,100046.50
2022-08-16T02:50:54.918Z,100038.19
2022-08-16T02:53:32.064Z,100034.84
2022-08-16T02:55:59.192Z,100041.84
2022-08-16T02:58:28.036Z,100036.03
2022-08-16T03:00:57.243Z,100046.34
2022-08-16T03:03:26.115Z,100043.56
2022-08-16T03:05:53.498Z,100051.66
2022-08-16T03:08:51.098Z,100053.88
2022-08-16T03:11:17.924Z,100050.50
2022-08-16T03:13:56.477Z,100044.94
2022-08-16T03:16:38.359Z,100047.19
2022-08-16T03:19:09.015Z,100046.13
2022-08-16T03:21:37.792Z,100049.22
2022-08-16T03:24:06.220Z,100052.28
2022-08-16T03:26:52.901Z,100050.34
2022-08-16T03:29:19.491Z,100047.00
2022-08-16T03:31:45.941Z,100051.19
2022-08-16T03:34:19.198Z,100053.19
2022-08-16T03:36:47.307Z,100055.13
2022-08-16T03:39:15.073Z,100053.47
2022-08-16T03:41:50.847Z,100052.94
2022-08-16T03:44:44.592Z,100041.22
2022-08-16T03:47:05.073Z,100046.25
2022-08-16T03:49:37.371Z,100054.09
2022-08-16T03:52:04.420Z,100053.25
2022-08-16T03:54:31.105Z,100055.75
2022-08-16T03:56:58.761Z,100067.75
2022-08-16T03:59:25.865Z,100061.34
2022-08-16T04:01:56.414Z,100061.94
2022-08-16T04:04:25.099Z,100059.72
2022-08-16T04:07:00.491Z,100063.06
2022-08-16T04:09:35.455Z,100061.69
2022-08-16T04:12:11.210Z,100059.50
2022-08-16T04:14:51.552Z,100067.63
2022-08-16T04:17:18.132Z,100063.16
2022-08-16T04:19:46.585Z,100067.88
2022-08-16T04:22:17.079Z,100068.19
2022-08-16T04:24:54.321Z,100071.53
2022-08-16T04:27:22.235Z,100072.13
2022-08-16T04:29:52.297Z,100065.72
2022-08-16T04:32:19.843Z,100070.19
2022-08-16T04:34:46.805Z,100067.16
2022-08-16T04:37:14.217Z,100075.00
2022-08-16T04:39:46.839Z,100083.63
2022-08-16T04:42:16.065Z,100079.19
2022-08-16T04:44:53.613Z,100092.84
2022-08-16T04:47:31.404Z,100092.84
2022-08-16T04:49:58.636Z,100095.88
2022-08-16T04:52:34.468Z,100100.84
2022-08-16T04:55:04.810Z,100101.38
2022-08-16T04:57:31.303Z,100097.69
2022-08-16T04:59:57.785Z,100104.66
2022-08-16T05:02:41.858Z,100103.81
2022-08-16T05:05:17.785Z,100111.41
2022-08-16T05:07:59.579Z,100110.59
2022-08-16T05:10:28.191Z,100111.16
2022-08-16T05:12:57.544Z,100108.13
2022-08-16T05:15:24.548Z,100111.19
2022-08-16T05:17:55.522Z,100114.28
2022-08-16T05:20:39.100Z,100118.47
2022-08-16T05:23:13.799Z,100122.94
2022-08-16T05:25:48.502Z,100125.44
2022-08-16T05:28:16.440Z,100124.81
2022-08-16T05:30:43.110Z,100130.69
2022-08-16T05:33:16.263Z,100127.88
2022-08-16T05:35:43.685Z,100129.53
2022-08-16T05:38:32.557Z,100125.63
2022-08-16T05:41:00.554Z,100124.50
2022-08-16T05:43:32.201Z,100123.38
2022-08-16T05:46:29.781Z,100125.06
2022-08-16T05:49:08.675Z,100111.66
2022-08-16T05:51:39.986Z,100114.97
2022-08-16T05:54:09.603Z,100118.03
2022-08-16T05:56:39.271Z,100113.53
2022-08-16T05:59:07.172Z,100110.72
2022-08-16T06:01:37.830Z,100109.81
2022-08-16T06:04:13.459Z,100117.06
2022-08-16T06:06:56.437Z,100118.72
2022-08-16T06:09:25.155Z,100123.41
2022-08-16T06:11:52.112Z,100128.91
2022-08-16T06:14:18.965Z,100126.84
2022-08-16T06:16:50.867Z,100129.53
2022-08-16T06:19:17.800Z,100136.69
2022-08-16T06:21:44.436Z,100135.78
2022-08-16T06:24:54.745Z,100139.31
2022-08-16T06:26:58.400Z,100131.09
2022-08-16T06:29:25.151Z,100139.06
2022-08-16T06:31:51.788Z,100138.94
2022-08-16T06:34:56.149Z,100136.56
2022-08-16T06:37:05.849Z,100140.97
2022-08-16T06:39:34.368Z,100139.47
2022-08-16T06:42:01.080Z,100132.75
2022-08-16T06:44:27.821Z,100134.03
2022-08-16T06:46:54.399Z,100130.63
2022-08-16T06:49:20.857Z,100136.63
2022-08-16T06:51:48.825Z,100147.00
2022-08-16T06:54:16.356Z,100135.69
2022-08-16T06:56:43.399Z,100146.28
2022-08-16T06:59:10.399Z,100145.69
2022-08-16T07:01:46.320Z,100143.59
2022-08-16T07:04:33.235Z,100149.09
2022-08-16T07:07:05.966Z,100159.44
2022-08-16T07:09:32.718Z,100150.59
2022-08-16T07:12:03.435Z,100153.34
2022-08-16T07:14:31.131Z,100151.72
2022-08-16T07:16:59.499Z,100151.88
2022-08-16T07:20:01.541Z,100154.88
2022-08-16T07:22:36.780Z,100156.72
2022-08-16T07:25:04.903Z,100156.59
2022-08-16T07:27:33.586Z,100156.78
2022-08-16T07:30:00.816Z,100169.56
2022-08-16T07:32:29.279Z,100158.47
2022-08-16T07:34:58.025Z,100152.78
2022-08-16T07:37:24.476Z,100149.25
2022-08-16T07:39:51.534Z,100156.53
2022-08-16T07:42:28.709Z,100152.47
2022-08-16T07:45:02.636Z,100154.06
2022-08-16T07:47:31.686Z,100157.50
2022-08-16T07:49:59.344Z,100163.41
2022-08-16T07:52:29.937Z,100159.47
2022-08-16T07:54:57.497Z,100161.78
2022-08-16T07:57:24.664Z,100148.69
2022-08-16T07:59:51.962Z,100150.97
2022-08-16T08:02:20.110Z,100156.09
2022-08-16T08:04:48.151Z,100162.03
2022-08-16T08:07:16.205Z,100165.34
2022-08-16T08:09:43.382Z,100153.28
2022-08-16T08:12:31.479Z,100154.28
2022-08-16T08:14:56.819Z,100155.41
2022-08-16T08:17:23.300Z,100157.97
2022-08-16T08:19:52.976Z,100149.66
2022-08-16T08:22:22.306Z,100151.94
2022-08-16T08:24:49.244Z,100142.56
2022-08-16T08:27:23.008Z,100144.97
2022-08-16T08:30:48.904Z,100147.41
2022-08-16T08:32:57.945Z,100149.06
2022-08-16T08:35:27.111Z,100151.50
2022-08-16T08:37:56.433Z,100141.75
2022-08-16T08:40:26.776Z,100148.75
2022-08-16T08:43:00.036Z,100144.47
2022-08-16T08:45:47.869Z,100152.28
2022-08-16T08:48:34.597Z,100155.97
2022-08-16T08:51:08.964Z,100159.53
2022-08-16T08:53:36.973Z,100161.97
2022-08-16T08:56:23.511Z,100160.78
2022-08-16T08:58:54.715Z,100151.91
2022-08-16T09:01:36.824Z,100151.94
2022-08-16T09:04:10.508Z,100159.78
2022-08-16T09:06:43.260Z,100151.75
2022-08-16T09:09:17.044Z,100164.88
2022-08-16T09:11:47.277Z,100164.25
2022-08-16T09:14:24.101Z,100168.91
2022-08-16T09:17:00.899Z,100168.16
2022-08-16T09:19:34.197Z,100163.03
2022-08-16T09:22:02.016Z,100149.47
2022-08-16T09:24:47.168Z,100153.44
2022-08-16T09:27:15.928Z,100161.91
2022-08-16T09:29:44.787Z,100159.75
2022-08-16T09:32:12.406Z,100168.34
2022-08-16T09:34:54.884Z,100171.34
2022-08-16T09:37:29.621Z,100167.88
2022-08-16T09:39:58.102Z,100165.47
2022-08-16T09:42:28.169Z,100164.75
2022-08-16T09:45:11.741Z,100152.91
2022-08-16T09:47:57.064Z,100139.53
2022-08-16T09:50:33.188Z,100151.56
2022-08-16T09:53:08.461Z,100155.63
2022-08-16T09:55:44.925Z,100154.19
2022-08-16T09:58:37.558Z,100153.47
2022-08-16T10:01:02.199Z,100136.81
2022-08-16T10:03:30.605Z,100132.88
2022-08-16T10:05:57.617Z,100138.34
2022-08-16T10:08:25.737Z,100138.22
2022-08-16T10:11:11.457Z,100136.72
2022-08-16T10:13:39.516Z,100142.25
2022-08-16T10:19:02.146Z,100128.81
2022-08-16T10:21:23.556Z,100133.59
2022-08-16T10:23:53.449Z,100133.25
2022-08-16T10:27:00.735Z,100132.00
2022-08-16T10:29:11.595Z,100130.53
2022-08-16T10:31:44.544Z,100116.97
2022-08-16T10:34:32.037Z,100129.81
2022-08-16T10:36:59.606Z,100130.31
2022-08-16T10:39:26.082Z,100121.78
2022-08-16T10:41:52.559Z,100122.84
2022-08-16T10:44:19.043Z,100119.88
2022-08-16T10:46:45.475Z,100122.06
2022-08-16T10:49:16.882Z,100127.22
2022-08-16T10:52:01.421Z,100120.16
2022-08-16T10:54:30.600Z,100115.44
2022-08-16T10:57:01.362Z,100124.72
2022-08-16T10:59:38.232Z,100119.19
2022-08-16T11:02:59.577Z,100121.56
2022-08-16T11:05:08.235Z,100119.38
2022-08-16T11:07:51.414Z,100116.78
2022-08-16T11:19:05.288Z,100123.31
2022-08-16T11:22:23.074Z,100116.34
2022-08-16T11:24:40.103Z,100122.72
2022-08-16T11:27:24.108Z,100123.25
2022-08-16T11:29:55.740Z,100125.25
2022-08-16T11:32:31.740Z,100124.50
2022-08-16T11:35:10.544Z,100132.50
2022-08-16T11:40:32.517Z,100132.13
2022-08-16T11:43:01.374Z,100121.63
2022-08-16T11:45:27.962Z,100120.09
2022-08-16T11:48:00.384Z,100125.06
2022-08-16T11:50:27.263Z,100132.28
2022-08-16T11:52:53.768Z,100118.19
2022-08-16T11:55:20.337Z,100113.56
2022-08-16T11:57:56.358Z,100107.97
2022-08-16T12:00:34.084Z,100108.47
2022-08-16T12:03:11.148Z,100116.56
2022-08-16T12:05:39.615Z,100114.00
2022-08-16T12:08:07.127Z,100117.84
2022-08-16T12:10:36.214Z,100121.31
2022-08-16T12:13:03.027Z,100112.88
2022-08-16T12:15:31.045Z,100113.22
2022-08-16T12:17:58.055Z,100119.69
2022-08-16T12:20:29.789Z,100109.13
2022-08-16T12:22:57.102Z,100108.53
2022-08-16T12:25:27.380Z,100100.44
2022-08-16T12:27:55.538Z,100104.63
2022-08-16T12:30:31.176Z,100093.31
2022-08-16T12:33:03.332Z,100090.56
2022-08-16T12:35:31.495Z,100095.41
2022-08-16T12:37:59.938Z,100089.19
2022-08-16T12:40:31.561Z,100092.47
2022-08-16T12:43:00.852Z,100092.19
2022-08-16T12:45:31.090Z,100092.97
2022-08-16T12:48:32.633Z,100101.47
2022-08-16T12:51:03.726Z,100093.78
2022-08-16T12:53:31.778Z,100092.31
2022-08-16T12:55:59.358Z,100082.88
2022-08-16T12:58:49.227Z,100095.00
2022-08-16T13:01:14.783Z,100081.50
2022-08-16T13:03:42.089Z,100085.69
2022-08-16T13:06:09.506Z,100080.47
2022-08-16T13:08:39.420Z,100078.13
2022-08-16T13:11:07.720Z,100070.19
2022-08-16T13:13:35.579Z,100068.66
2022-08-16T13:16:15.464Z,100075.19
2022-08-16T13:18:52.753Z,100074.53
2022-08-16T13:21:23.489Z,100065.47
2022-08-16T13:23:51.389Z,100080.28
2022-08-16T13:26:21.969Z,100075.09
2022-08-16T13:28:48.421Z,100071.97
2022-08-16T13:31:16.914Z,100085.22
2022-08-16T13:33:43.632Z,100085.16
2022-08-16T13:36:21.273Z,100072.91
2022-08-16T13:38:59.978Z,100063.19
2022-08-16T13:41:30.178Z,100073.00
2022-08-16T13:43:59.548Z,100059.94
2022-08-16T13:46:27.215Z,100058.34
2022-08-16T13:48:55.334Z,100063.75
2022-08-16T13:51:25.378Z,100075.31
2022-08-16T13:54:02.950Z,100061.47
2022-08-16T13:56:38.123Z,100072.47
2022-08-16T13:59:14.363Z,100062.16
2022-08-16T14:01:54.672Z,100064.38
2022-08-16T14:04:26.176Z,100062.09
2022-08-16T14:06:53.184Z,100064.94
2022-08-16T14:09:20.251Z,100059.69
2022-08-16T14:11:46.827Z,100069.50
2022-08-16T14:14:16.681Z,100068.97
2022-08-16T14:16:44.619Z,100072.56
2022-08-16T14:19:11.991Z,100067.59
2022-08-16T14:21:40.925Z,100063.88
2022-08-16T14:24:22.424Z,100063.06
2022-08-16T14:26:54.793Z,100058.41
2022-08-16T14:29:23.431Z,100070.16
2022-08-16T14:31:53.868Z,100063.09
2022-08-16T14:34:21.336Z,100065.72
2022-08-16T14:36:52.957Z,100066.00
2022-08-16T14:39:21.904Z,100057.38
2022-08-16T14:41:48.365Z,100055.38
2022-08-16T14:44:16.008Z,100053.78
2022-08-16T14:46:42.422Z,100055.69
2022-08-16T14:49:09.752Z,100049.81
2022-08-16T14:51:36.569Z,100048.19
2022-08-16T14:54:05.473Z,100054.34
2022-08-16T14:56:38.482Z,100050.16
2022-08-16T14:59:09.578Z,100050.53
2022-08-16T15:03:44.734Z,100046.31
2022-08-16T15:06:13.186Z,100044.59
2022-08-16T15:08:41.170Z,100042.97
2022-08-16T15:11:07.971Z,100049.28
2022-08-16T15:13:35.299Z,100045.31
2022-08-16T15:16:03.728Z,100050.03
2022-08-16T15:18:31.683Z,100045.13
2022-08-16T15:21:02.517Z,100045.03
2022-08-16T15:23:31.481Z,100052.31
2022-08-16T15:26:02.762Z,100048.88
2022-08-16T15:28:32.347Z,100042.66
2022-08-16T15:31:04.403Z,100052.41
2022-08-16T15:33:39.332Z,100047.09
2022-08-16T15:36:12.152Z,100049.94
2022-08-16T15:39:02.179Z,100047.94
2022-08-16T15:41:42.875Z,100048.56
2022-08-16T15:44:15.581Z,100060.41
2022-08-16T15:46:56.104Z,100051.06
2022-08-16T15:49:25.235Z,100051.91
2022-08-16T15:52:01.728Z,100052.81
2022-08-16T15:54:32.766Z,100050.47
2022-08-16T15:57:09.700Z,100045.22
2022-08-16T15:59:48.768Z,100040.34
2022-08-16T16:02:27.395Z,100037.16
2022-08-16T16:04:56.630Z,100026.44
2022-08-16T16:07:23.345Z,100029.84
2022-08-16T16:09:49.817Z,100024.13
2022-08-16T16:12:50.131Z,100034.78
2022-08-16T16:15:07.262Z,100033.94
2022-08-16T16:17:34.241Z,100031.44
2022-08-16T16:20:03.781Z,100032.56
2022-08-16T16:22:30.272Z,100030.84
2022-08-16T16:24:56.945Z,100032.06
2022-08-16T16:27:23.969Z,100034.56
2022-08-16T16:30:01.514Z,100033.44
2022-08-16T16:32:34.464Z,100038.84
2022-08-16T16:35:02.418Z,100033.94
2022-08-16T16:37:31.014Z,100023.31
2022-08-16T16:39:58.277Z,100029.00
2022-08-16T16:42:30.328Z,100034.72
2022-08-16T16:45:01.608Z,100027.31
2022-08-16T16:47:40.582Z,100036.22
2022-08-16T16:50:09.467Z,100031.63
2022-08-16T16:52:44.266Z,100032.69
2022-08-16T16:55:13.501Z,100033.38
2022-08-16T16:58:03.205Z,100034.78
2022-08-16T17:00:37.881Z,100044.34
2022-08-16T17:03:06.247Z,100035.09
2022-08-16T17:05:44.179Z,100038.47
2022-08-16T17:08:23.976Z,100035.69
2022-08-16T17:10:51.804Z,100035.00
2022-08-16T17:13:20.346Z,100027.34
2022-08-16T17:15:46.847Z,100030.34
2022-08-16T17:19:16.501Z,100030.50
2022-08-16T17:21:06.524Z,100031.03
2022-08-16T17:23:58.870Z,100044.16
2022-08-16T17:26:19.741Z,100027.66
2022-08-16T17:29:00.237Z,100040.53
2022-08-16T17:31:40.880Z,100043.56
2022-08-16T17:34:30.407Z,100043.69
2022-08-16T17:36:59.633Z,100040.56
2022-08-16T17:39:29.518Z,100043.56
2022-08-16T17:41:57.117Z,100043.28
2022-08-16T17:44:23.746Z,100041.31
2022-08-16T17:46:52.087Z,100049.19
2022-08-16T17:49:19.552Z,100044.72
2022-08-16T17:51:46.099Z,100046.06
2022-08-16T17:54:18.783Z,100044.97
2022-08-16T17:57:01.274Z,100052.25
2022-08-16T17:59:28.849Z,100051.88
2022-08-16T18:01:56.140Z,100054.31
2022-08-16T18:04:45.219Z,100064.47
2022-08-16T18:07:10.100Z,100063.19
2022-08-16T18:09:36.969Z,100066.13
2022-08-16T18:12:44.876Z,100063.19
2022-08-16T18:15:09.370Z,100065.16
2022-08-16T18:17:35.949Z,100061.91
2022-08-16T18:20:03.382Z,100052.16
2022-08-16T18:22:33.677Z,100057.38
2022-08-16T18:25:00.518Z,100050.53
2022-08-16T18:27:28.523Z,100054.44
2022-08-16T18:29:55.084Z,100046.00
2022-08-16T18:32:24.840Z,100048.34
2022-08-16T18:34:54.519Z,100044.28
2022-08-16T18:37:23.005Z,100054.81
2022-08-16T18:39:49.460Z,100055.16
2022-08-16T18:42:15.972Z,100063.63
2022-08-16T18:44:43.975Z,100064.75
2022-08-16T18:47:10.865Z,100064.38
2022-08-16T18:49:37.320Z,100078.97
2022-08-16T18:52:04.642Z,100077.41
2022-08-16T18:54:32.242Z,100086.31
2022-08-16T18:56:58.842Z,100090.72
2022-08-16T18:59:30.801Z,100084.31
2022-08-16T19:02:00.523Z,100096.03
2022-08-16T19:04:56.562Z,100097.97
2022-08-16T19:07:21.039Z,100107.19
2022-08-16T19:09:47.721Z,100102.63
2022-08-16T19:12:16.045Z,100112.44
2022-08-16T19:14:44.140Z,100111.97
2022-08-16T19:17:11.304Z,100113.53
2022-08-16T19:19:37.861Z,100118.41
2022-08-16T19:22:05.894Z,100123.94
2022-08-16T19:24:32.461Z,100127.63
2022-08-16T19:26:59.002Z,100122.00
2022-08-16T19:29:28.560Z,100133.66
2022-08-16T19:31:55.009Z,100136.81
2022-08-16T19:34:21.519Z,100145.63
2022-08-16T19:36:48.018Z,100154.09
2022-08-16T19:39:15.517Z,100150.78
2022-08-16T19:41:45.277Z,100152.13
2022-08-16T19:44:12.015Z,100155.78
2022-08-16T19:46:41.612Z,100158.75
2022-08-16T19:49:08.077Z,100154.44
2022-08-16T19:51:34.641Z,100163.91
2022-08-16T19:54:01.044Z,100172.47
2022-08-16T19:56:27.476Z,100161.03
2022-08-16T20:01:42.894Z,100173.13
2022-08-16T20:04:13.618Z,100171.94
2022-08-16T20:06:41.587Z,100178.88
2022-08-16T20:09:08.082Z,100167.91
2022-08-16T20:11:37.132Z,100187.63
2022-08-16T20:14:04.342Z,100194.91
2022-08-16T20:16:30.900Z,100202.13
2022-08-16T20:18:57.674Z,100207.03
2022-08-16T20:21:24.391Z,100202.53
2022-08-16T20:23:51.068Z,100206.63
2022-08-16T20:26:18.743Z,100215.69
2022-08-16T20:28:53.888Z,100215.00
2022-08-16T20:31:23.058Z,100214.09
2022-08-16T20:33:50.765Z,100220.19
2022-08-16T20:36:17.268Z,100233.88
2022-08-16T20:38:47.023Z,100233.97
2022-08-16T20:41:14.424Z,100240.03
2022-08-16T20:43:40.843Z,100242.97
2022-08-16T20:46:07.690Z,100243.41
2022-08-16T20:48:34.137Z,100246.56
2022-08-16T20:51:00.582Z,100251.97
2022-08-16T20:53:27.020Z,100247.50
2022-08-16T20:55:53.515Z,100257.72
2022-08-16T20:58:19.924Z,100244.28
2022-08-16T21:00:47.232Z,100250.56
2022-08-16T21:03:14.077Z,100256.28
2022-08-16T21:05:41.032Z,100248.00
2022-08-16T21:08:26.774Z,100247.78
2022-08-16T21:10:56.410Z,100251.84
2022-08-16T21:13:25.339Z,100252.78
2022-08-16T21:15:52.084Z,100250.59
2022-08-16T21:18:18.476Z,100254.34
2022-08-16T21:20:44.908Z,100246.91
2022-08-16T21:23:11.385Z,100238.47
2022-08-16T21:25:44.831Z,100240.19
2022-08-16T21:28:39.206Z,100237.81
2022-08-16T21:31:09.928Z,100229.09
2022-08-16T21:33:36.341Z,100226.56
2022-08-16T21:36:03.030Z,100227.75
2022-08-16T21:38:30.772Z,100236.78
2022-08-16T21:40:59.193Z,100226.72
2022-08-16T21:43:27.564Z,100227.31
2022-08-16T21:45:55.414Z,100226.50
2022-08-16T21:48:35.829Z,100223.16
2022-08-16T21:51:08.918Z,100221.19
2022-08-16T21:53:36.054Z,100220.69
2022-08-16T21:56:04.585Z,100224.63
2022-08-16T21:58:31.611Z,100213.47
2022-08-16T22:00:59.028Z,100220.88
2022-08-16T22:03:25.593Z,100228.56
2022-08-16T22:06:12.027Z,100227.00
2022-08-16T22:08:49.751Z,100229.16
2022-08-16T22:11:22.292Z,100230.41
2022-08-16T22:13:58.300Z,100237.84
2022-08-16T22:16:31.804Z,100230.16
2022-08-16T22:18:58.989Z,100235.94
2022-08-16T22:21:26.330Z,100238.31
2022-08-16T22:23:57.669Z,100251.06
2022-08-16T22:26:31.828Z,100236.31
2022-08-16T22:29:07.609Z,100243.97
2022-08-16T22:31:35.615Z,100246.03
2022-08-16T22:34:03.102Z,100247.78
2022-08-16T22:36:31.576Z,100246.19
2022-08-16T22:39:00.083Z,100252.38
2022-08-16T22:41:28.452Z,100247.13
2022-08-16T22:43:55.836Z,100243.06
2022-08-16T22:46:22.683Z,100251.00
2022-08-16T22:48:52.290Z,100241.03
2022-08-16T22:51:20.326Z,100245.00
2022-08-16T22:53:47.410Z,100245.72
2022-08-16T22:56:15.573Z,100250.84
2022-08-16T22:58:42.395Z,100249.78
2022-08-16T23:01:09.864Z,100255.13
2022-08-16T23:03:37.786Z,100253.78
2022-08-16T23:06:05.960Z,100256.06
2022-08-16T23:08:39.362Z,100258.63
2022-08-16T23:11:12.455Z,100251.13
2022-08-16T23:13:49.886Z,100261.25
2022-08-16T23:16:33.717Z,100265.78
2022-08-16T23:19:09.635Z,100266.91
2022-08-16T23:21:38.565Z,100268.91
2022-08-16T23:24:06.743Z,100259.09
2022-08-16T23:26:46.830Z,100255.19
2022-08-16T23:29:24.309Z,100242.91
2022-08-16T23:31:58.848Z,100249.91
2022-08-16T23:34:27.277Z,100251.34
2022-08-16T23:36:54.194Z,100245.72
2022-08-16T23:39:20.747Z,100255.53
2022-08-16T23:41:47.286Z,100241.22
2022-08-16T23:44:44.197Z,100248.75
2022-08-16T23:47:00.632Z,100238.91
2022-08-16T23:49:58.371Z,100242.25
2022-08-16T23:52:13.986Z,100237.19
2022-08-16T23:54:40.429Z,100244.97
2022-08-16T23:57:08.227Z,100249.38
2022-08-16T23:59:48.634Z,100242.06
